sensor_id;sensor_type;location;lat;lon;timestamp;P1;durP1;ratioP1;P2;durP2;ratioP2
62994;SDS011;49086;52.300;4.850;2022-11-20T00:01:06;11.88;;;6.43;;
62994;SDS011;49086;52.300;4.850;2022-11-20T00:03:33;10.20;;;5.72;;
62994;SDS011;49086;52.300;4.850;2022-11-20T00:06:04;8.85;;;5.40;;
62994;SDS011;49086;52.300;4.850;2022-11-20T00:08:40;10.77;;;5.70;;
62994;SDS011;49086;52.300;4.850;2022-11-20T00:11:18;11.88;;;5.90;;
62994;SDS011;49086;52.300;4.850;2022-11-20T00:13:44;11.18;;;6.35;;
62994;SDS011;49086;52.300;4.850;2022-11-20T00:16:11;9.23;;;5.68;;
62994;SDS011;49086;52.300;4.850;2022-11-20T00:18:41;11.80;;;6.30;;
62994;SDS011;49086;52.300;4.850;2022-11-20T00:21:09;11.43;;;5.20;;
62994;SDS011;49086;52.300;4.850;2022-11-20T00:23:36;10.88;;;5.88;;
62994;SDS011;49086;52.300;4.850;2022-11-20T00:26:09;11.80;;;5.75;;
62994;SDS011;49086;52.300;4.850;2022-11-20T00:28:43;9.68;;;5.15;;
62994;SDS011;49086;52.300;4.850;2022-11-20T00:31:29;10.43;;;5.35;;
62994;SDS011;49086;52.300;4.850;2022-11-20T00:33:55;8.32;;;5.32;;
62994;SDS011;49086;52.300;4.850;2022-11-20T00:36:31;11.90;;;6.10;;
62994;SDS011;49086;52.300;4.850;2022-11-20T00:38:57;8.73;;;4.93;;
62994;SDS011;49086;52.300;4.850;2022-11-20T00:41:26;8.43;;;5.35;;
62994;SDS011;49086;52.300;4.850;2022-11-20T00:43:56;10.63;;;5.15;;
62994;SDS011;49086;52.300;4.850;2022-11-20T00:46:23;10.65;;;6.10;;
62994;SDS011;49086;52.300;4.850;2022-11-20T00:49:09;11.35;;;5.93;;
62994;SDS011;49086;52.300;4.850;2022-11-20T00:51:39;9.38;;;5.13;;
62994;SDS011;49086;52.300;4.850;2022-11-20T00:54:08;10.07;;;6.10;;
62994;SDS011;49086;52.300;4.850;2022-11-20T00:56:33;11.98;;;6.65;;
62994;SDS011;49086;52.300;4.850;2022-11-20T00:59:00;11.02;;;6.45;;
62994;SDS011;49086;52.300;4.850;2022-11-20T01:01:30;9.93;;;5.53;;
62994;SDS011;49086;52.300;4.850;2022-11-20T01:03:59;11.85;;;6.05;;
62994;SDS011;49086;52.300;4.850;2022-11-20T01:06:33;10.30;;;5.63;;
62994;SDS011;49086;52.300;4.850;2022-11-20T01:09:03;8.23;;;5.32;;
62994;SDS011;49086;52.300;4.850;2022-11-20T01:11:31;9.57;;;5.82;;
62994;SDS011;49086;52.300;4.850;2022-11-20T01:14:01;15.93;;;7.47;;
62994;SDS011;49086;52.300;4.850;2022-11-20T01:16:38;12.85;;;6.43;;
62994;SDS011;49086;52.300;4.850;2022-11-20T01:19:12;10.57;;;6.43;;
62994;SDS011;49086;52.300;4.850;2022-11-20T01:21:59;10.98;;;6.97;;
62994;SDS011;49086;52.300;4.850;2022-11-20T01:24:27;10.07;;;5.75;;
62994;SDS011;49086;52.300;4.850;2022-11-20T01:26:55;11.82;;;6.25;;
62994;SDS011;49086;52.300;4.850;2022-11-20T01:29:31;11.32;;;5.70;;
62994;SDS011;49086;52.300;4.850;2022-11-20T01:32:02;10.98;;;5.50;;
62994;SDS011;49086;52.300;4.850;2022-11-20T01:37:18;9.80;;;6.28;;
62994;SDS011;49086;52.300;4.850;2022-11-20T01:39:43;13.90;;;6.40;;
62994;SDS011;49086;52.300;4.850;2022-11-20T01:42:08;11.07;;;6.80;;
62994;SDS011;49086;52.300;4.850;2022-11-20T01:47:39;12.32;;;6.22;;
62994;SDS011;49086;52.300;4.850;2022-11-20T01:50:17;12.52;;;6.13;;
62994;SDS011;49086;52.300;4.850;2022-11-20T01:52:52;12.23;;;5.80;;
62994;SDS011;49086;52.300;4.850;2022-11-20T01:55:48;13.40;;;6.10;;
62994;SDS011;49086;52.300;4.850;2022-11-20T01:58:30;12.15;;;6.40;;
62994;SDS011;49086;52.300;4.850;2022-11-20T02:03:36;11.20;;;6.05;;
62994;SDS011;49086;52.300;4.850;2022-11-20T02:08:46;11.77;;;6.22;;
62994;SDS011;49086;52.300;4.850;2022-11-20T02:11:36;10.45;;;6.10;;
62994;SDS011;49086;52.300;4.850;2022-11-20T02:14:02;12.13;;;6.32;;
62994;SDS011;49086;52.300;4.850;2022-11-20T02:16:29;13.73;;;7.30;;
62994;SDS011;49086;52.300;4.850;2022-11-20T02:19:04;12.18;;;6.57;;
62994;SDS011;49086;52.300;4.850;2022-11-20T02:21:49;13.60;;;7.07;;
62994;SDS011;49086;52.300;4.850;2022-11-20T02:24:21;10.75;;;5.53;;
62994;SDS011;49086;52.300;4.850;2022-11-20T02:27:01;14.20;;;7.47;;
62994;SDS011;49086;52.300;4.850;2022-11-20T02:32:24;14.95;;;6.55;;
62994;SDS011;49086;52.300;4.850;2022-11-20T02:34:54;11.65;;;5.75;;
62994;SDS011;49086;52.300;4.850;2022-11-20T02:37:23;13.95;;;6.85;;
62994;SDS011;49086;52.300;4.850;2022-11-20T02:39:53;11.63;;;6.40;;
62994;SDS011;49086;52.300;4.850;2022-11-20T02:42:22;10.48;;;5.45;;
62994;SDS011;49086;52.300;4.850;2022-11-20T02:44:51;12.98;;;7.07;;
62994;SDS011;49086;52.300;4.850;2022-11-20T02:47:21;11.68;;;6.57;;
62994;SDS011;49086;52.300;4.850;2022-11-20T02:49:46;10.77;;;5.97;;
62994;SDS011;49086;52.300;4.850;2022-11-20T02:52:38;12.48;;;6.65;;
62994;SDS011;49086;52.300;4.850;2022-11-20T02:55:03;11.23;;;6.22;;
62994;SDS011;49086;52.300;4.850;2022-11-20T02:57:33;11.00;;;5.60;;
62994;SDS011;49086;52.300;4.850;2022-11-20T03:00:02;12.60;;;6.45;;
62994;SDS011;49086;52.300;4.850;2022-11-20T03:02:52;10.48;;;6.30;;
62994;SDS011;49086;52.300;4.850;2022-11-20T03:05:41;12.27;;;5.70;;
62994;SDS011;49086;52.300;4.850;2022-11-20T03:08:11;9.82;;;5.65;;
62994;SDS011;49086;52.300;4.850;2022-11-20T03:10:36;11.60;;;6.55;;
62994;SDS011;49086;52.300;4.850;2022-11-20T03:13:14;13.82;;;6.60;;
62994;SDS011;49086;52.300;4.850;2022-11-20T03:16:12;10.48;;;6.28;;
62994;SDS011;49086;52.300;4.850;2022-11-20T03:18:41;11.85;;;6.75;;
62994;SDS011;49086;52.300;4.850;2022-11-20T03:21:16;13.23;;;6.78;;
62994;SDS011;49086;52.300;4.850;2022-11-20T03:23:41;11.60;;;6.75;;
62994;SDS011;49086;52.300;4.850;2022-11-20T03:26:11;10.90;;;5.78;;
62994;SDS011;49086;52.300;4.850;2022-11-20T03:28:55;11.57;;;6.25;;
62994;SDS011;49086;52.300;4.850;2022-11-20T03:31:27;10.05;;;5.70;;
62994;SDS011;49086;52.300;4.850;2022-11-20T03:33:54;11.20;;;6.65;;
62994;SDS011;49086;52.300;4.850;2022-11-20T03:36:49;8.90;;;5.03;;
62994;SDS011;49086;52.300;4.850;2022-11-20T03:39:16;11.07;;;5.85;;
62994;SDS011;49086;52.300;4.850;2022-11-20T03:41:54;12.95;;;5.75;;
62994;SDS011;49086;52.300;4.850;2022-11-20T03:44:26;9.10;;;5.45;;
62994;SDS011;49086;52.300;4.850;2022-11-20T03:46:57;13.30;;;6.70;;
62994;SDS011;49086;52.300;4.850;2022-11-20T03:49:38;10.48;;;6.00;;
62994;SDS011;49086;52.300;4.850;2022-11-20T03:52:15;14.27;;;7.43;;
62994;SDS011;49086;52.300;4.850;2022-11-20T03:54:47;12.18;;;7.25;;
62994;SDS011;49086;52.300;4.850;2022-11-20T03:57:25;12.32;;;6.28;;
62994;SDS011;49086;52.300;4.850;2022-11-20T04:00:12;10.43;;;6.78;;
62994;SDS011;49086;52.300;4.850;2022-11-20T04:02:45;11.50;;;6.78;;
62994;SDS011;49086;52.300;4.850;2022-11-20T04:05:54;11.50;;;6.97;;
62994;SDS011;49086;52.300;4.850;2022-11-20T04:08:25;9.63;;;5.75;;
62994;SDS011;49086;52.300;4.850;2022-11-20T04:10:51;10.77;;;6.25;;
62994;SDS011;49086;52.300;4.850;2022-11-20T04:13:22;10.50;;;5.43;;
62994;SDS011;49086;52.300;4.850;2022-11-20T04:15:51;9.55;;;5.93;;
62994;SDS011;49086;52.300;4.850;2022-11-20T04:18:17;13.10;;;6.95;;
62994;SDS011;49086;52.300;4.850;2022-11-20T04:20:43;11.90;;;6.65;;
62994;SDS011;49086;52.300;4.850;2022-11-20T04:23:13;11.73;;;5.72;;
62994;SDS011;49086;52.300;4.850;2022-11-20T04:26:01;12.30;;;7.00;;
62994;SDS011;49086;52.300;4.850;2022-11-20T04:28:29;13.93;;;6.95;;
62994;SDS011;49086;52.300;4.850;2022-11-20T04:31:04;11.77;;;6.05;;
62994;SDS011;49086;52.300;4.850;2022-11-20T04:33:36;12.68;;;7.20;;
62994;SDS011;49086;52.300;4.850;2022-11-20T04:36:21;11.18;;;7.00;;
62994;SDS011;49086;52.300;4.850;2022-11-20T04:39:04;11.48;;;6.85;;
62994;SDS011;49086;52.300;4.850;2022-11-20T04:41:33;12.13;;;6.72;;
62994;SDS011;49086;52.300;4.850;2022-11-20T04:44:38;11.30;;;6.25;;
62994;SDS011;49086;52.300;4.850;2022-11-20T04:47:05;13.50;;;6.82;;
62994;SDS011;49086;52.300;4.850;2022-11-20T04:49:37;12.65;;;7.30;;
62994;SDS011;49086;52.300;4.850;2022-11-20T04:52:14;12.70;;;6.03;;
62994;SDS011;49086;52.300;4.850;2022-11-20T04:54:44;13.38;;;6.43;;
62994;SDS011;49086;52.300;4.850;2022-11-20T04:57:18;12.23;;;6.10;;
62994;SDS011;49086;52.300;4.850;2022-11-20T04:59:50;10.48;;;6.30;;
62994;SDS011;49086;52.300;4.850;2022-11-20T05:02:28;9.85;;;5.82;;
62994;SDS011;49086;52.300;4.850;2022-11-20T05:05:00;9.93;;;5.82;;
62994;SDS011;49086;52.300;4.850;2022-11-20T05:07:43;12.05;;;6.55;;
62994;SDS011;49086;52.300;4.850;2022-11-20T05:10:09;13.75;;;6.20;;
62994;SDS011;49086;52.300;4.850;2022-11-20T05:12:38;10.98;;;5.65;;
62994;SDS011;49086;52.300;4.850;2022-11-20T05:15:10;11.07;;;6.38;;
62994;SDS011;49086;52.300;4.850;2022-11-20T05:17:55;13.52;;;7.30;;
62994;SDS011;49086;52.300;4.850;2022-11-20T05:20:42;12.60;;;6.78;;
62994;SDS011;49086;52.300;4.850;2022-11-20T05:23:07;10.93;;;6.65;;
62994;SDS011;49086;52.300;4.850;2022-11-20T05:25:34;11.48;;;7.03;;
62994;SDS011;49086;52.300;4.850;2022-11-20T05:28:00;14.55;;;8.38;;
62994;SDS011;49086;52.300;4.850;2022-11-20T05:30:50;12.00;;;5.28;;
62994;SDS011;49086;52.300;4.850;2022-11-20T05:33:22;16.60;;;6.68;;
62994;SDS011;49086;52.300;4.850;2022-11-20T05:35:50;9.88;;;5.72;;
62994;SDS011;49086;52.300;4.850;2022-11-20T05:38:17;12.05;;;7.35;;
62994;SDS011;49086;52.300;4.850;2022-11-20T05:41:13;12.68;;;7.35;;
62994;SDS011;49086;52.300;4.850;2022-11-20T05:43:41;14.32;;;6.80;;
62994;SDS011;49086;52.300;4.850;2022-11-20T05:46:34;11.25;;;6.68;;
62994;SDS011;49086;52.300;4.850;2022-11-20T05:49:01;12.27;;;6.47;;
62994;SDS011;49086;52.300;4.850;2022-11-20T05:51:39;14.07;;;6.40;;
62994;SDS011;49086;52.300;4.850;2022-11-20T05:54:05;14.60;;;7.43;;
62994;SDS011;49086;52.300;4.850;2022-11-20T05:56:32;11.45;;;6.55;;
62994;SDS011;49086;52.300;4.850;2022-11-20T05:59:01;16.40;;;7.20;;
62994;SDS011;49086;52.300;4.850;2022-11-20T06:01:32;12.88;;;6.80;;
62994;SDS011;49086;52.300;4.850;2022-11-20T06:04:21;13.00;;;7.55;;
62994;SDS011;49086;52.300;4.850;2022-11-20T06:07:11;13.45;;;6.97;;
62994;SDS011;49086;52.300;4.850;2022-11-20T06:09:36;10.95;;;6.63;;
62994;SDS011;49086;52.300;4.850;2022-11-20T06:12:05;11.93;;;6.72;;
62994;SDS011;49086;52.300;4.850;2022-11-20T06:14:38;13.07;;;7.47;;
62994;SDS011;49086;52.300;4.850;2022-11-20T06:17:30;12.55;;;7.63;;
62994;SDS011;49086;52.300;4.850;2022-11-20T06:20:07;13.50;;;7.13;;
62994;SDS011;49086;52.300;4.850;2022-11-20T06:22:36;13.02;;;6.32;;
62994;SDS011;49086;52.300;4.850;2022-11-20T06:25:02;11.93;;;6.75;;
62994;SDS011;49086;52.300;4.850;2022-11-20T06:27:47;10.70;;;6.72;;
62994;SDS011;49086;52.300;4.850;2022-11-20T06:30:15;12.25;;;6.38;;
62994;SDS011;49086;52.300;4.850;2022-11-20T06:32:44;13.20;;;7.43;;
62994;SDS011;49086;52.300;4.850;2022-11-20T06:35:18;12.73;;;7.07;;
62994;SDS011;49086;52.300;4.850;2022-11-20T06:38:09;12.30;;;6.85;;
62994;SDS011;49086;52.300;4.850;2022-11-20T06:40:39;14.05;;;7.55;;
62994;SDS011;49086;52.300;4.850;2022-11-20T06:43:33;14.57;;;7.13;;
62994;SDS011;49086;52.300;4.850;2022-11-20T06:46:25;13.07;;;7.00;;
62994;SDS011;49086;52.300;4.850;2022-11-20T06:49:13;14.70;;;7.78;;
62994;SDS011;49086;52.300;4.850;2022-11-20T06:52:16;10.57;;;6.32;;
62994;SDS011;49086;52.300;4.850;2022-11-20T06:54:48;10.82;;;6.10;;
62994;SDS011;49086;52.300;4.850;2022-11-20T06:57:30;12.90;;;6.95;;
62994;SDS011;49086;52.300;4.850;2022-11-20T07:00:00;10.82;;;6.85;;
62994;SDS011;49086;52.300;4.850;2022-11-20T07:02:29;14.60;;;8.15;;
62994;SDS011;49086;52.300;4.850;2022-11-20T07:05:16;12.73;;;7.03;;
62994;SDS011;49086;52.300;4.850;2022-11-20T07:07:43;11.07;;;6.55;;
62994;SDS011;49086;52.300;4.850;2022-11-20T07:10:34;14.15;;;7.88;;
62994;SDS011;49086;52.300;4.850;2022-11-20T07:13:15;14.57;;;7.28;;
62994;SDS011;49086;52.300;4.850;2022-11-20T07:16:03;13.65;;;8.38;;
62994;SDS011;49086;52.300;4.850;2022-11-20T07:19:13;14.02;;;7.00;;
62994;SDS011;49086;52.300;4.850;2022-11-20T07:22:00;14.57;;;7.50;;
62994;SDS011;49086;52.300;4.850;2022-11-20T07:24:48;11.90;;;6.60;;
62994;SDS011;49086;52.300;4.850;2022-11-20T07:27:36;12.48;;;7.07;;
62994;SDS011;49086;52.300;4.850;2022-11-20T07:30:06;14.88;;;7.30;;
62994;SDS011;49086;52.300;4.850;2022-11-20T07:32:39;15.43;;;7.35;;
62994;SDS011;49086;52.300;4.850;2022-11-20T07:35:05;11.65;;;6.88;;
62994;SDS011;49086;52.300;4.850;2022-11-20T07:37:36;14.20;;;7.38;;
62994;SDS011;49086;52.300;4.850;2022-11-20T07:40:22;14.15;;;7.82;;
62994;SDS011;49086;52.300;4.850;2022-11-20T07:43:10;12.32;;;6.70;;
62994;SDS011;49086;52.300;4.850;2022-11-20T07:45:39;13.50;;;7.90;;
62994;SDS011;49086;52.300;4.850;2022-11-20T07:48:07;13.02;;;6.90;;
62994;SDS011;49086;52.300;4.850;2022-11-20T07:50:43;17.02;;;7.82;;
62994;SDS011;49086;52.300;4.850;2022-11-20T07:56:28;13.30;;;6.90;;
62994;SDS011;49086;52.300;4.850;2022-11-20T07:58:53;13.25;;;7.45;;
62994;SDS011;49086;52.300;4.850;2022-11-20T08:01:51;14.27;;;7.80;;
62994;SDS011;49086;52.300;4.850;2022-11-20T08:04:26;11.77;;;7.93;;
62994;SDS011;49086;52.300;4.850;2022-11-20T08:07:18;12.55;;;7.95;;
62994;SDS011;49086;52.300;4.850;2022-11-20T08:09:46;15.75;;;8.30;;
62994;SDS011;49086;52.300;4.850;2022-11-20T08:12:34;12.88;;;7.43;;
62994;SDS011;49086;52.300;4.850;2022-11-20T08:15:47;13.85;;;8.45;;
62994;SDS011;49086;52.300;4.850;2022-11-20T08:18:31;12.40;;;7.78;;
62994;SDS011;49086;52.300;4.850;2022-11-20T08:21:08;14.18;;;8.13;;
62994;SDS011;49086;52.300;4.850;2022-11-20T08:23:34;15.63;;;8.43;;
62994;SDS011;49086;52.300;4.850;2022-11-20T08:25:59;15.98;;;9.30;;
62994;SDS011;49086;52.300;4.850;2022-11-20T08:28:25;15.55;;;8.05;;
62994;SDS011;49086;52.300;4.850;2022-11-20T08:31:00;15.52;;;8.98;;
62994;SDS011;49086;52.300;4.850;2022-11-20T08:33:35;16.75;;;9.05;;
62994;SDS011;49086;52.300;4.850;2022-11-20T08:36:08;15.68;;;9.15;;
62994;SDS011;49086;52.300;4.850;2022-11-20T08:38:55;17.05;;;9.05;;
62994;SDS011;49086;52.300;4.850;2022-11-20T08:41:24;14.02;;;9.10;;
62994;SDS011;49086;52.300;4.850;2022-11-20T08:44:01;17.98;;;9.38;;
62994;SDS011;49086;52.300;4.850;2022-11-20T08:46:30;18.05;;;10.23;;
62994;SDS011;49086;52.300;4.850;2022-11-20T08:49:03;17.65;;;8.98;;
62994;SDS011;49086;52.300;4.850;2022-11-20T08:51:37;15.25;;;9.27;;
62994;SDS011;49086;52.300;4.850;2022-11-20T08:54:07;16.65;;;8.77;;
62994;SDS011;49086;52.300;4.850;2022-11-20T08:56:33;18.38;;;8.25;;
62994;SDS011;49086;52.300;4.850;2022-11-20T08:59:00;16.15;;;9.25;;
62994;SDS011;49086;52.300;4.850;2022-11-20T09:01:25;18.05;;;9.45;;
62994;SDS011;49086;52.300;4.850;2022-11-20T09:03:54;18.85;;;9.27;;
62994;SDS011;49086;52.300;4.850;2022-11-20T09:06:20;17.75;;;9.68;;
62994;SDS011;49086;52.300;4.850;2022-11-20T09:08:45;18.55;;;9.35;;
62994;SDS011;49086;52.300;4.850;2022-11-20T09:11:12;13.00;;;8.43;;
62994;SDS011;49086;52.300;4.850;2022-11-20T09:13:42;19.13;;;8.93;;
62994;SDS011;49086;52.300;4.850;2022-11-20T09:16:12;17.67;;;8.88;;
62994;SDS011;49086;52.300;4.850;2022-11-20T09:18:38;17.95;;;9.48;;
62994;SDS011;49086;52.300;4.850;2022-11-20T09:21:05;15.68;;;8.80;;
62994;SDS011;49086;52.300;4.850;2022-11-20T09:23:34;14.43;;;9.35;;
62994;SDS011;49086;52.300;4.850;2022-11-20T09:26:12;18.48;;;10.52;;
62994;SDS011;49086;52.300;4.850;2022-11-20T09:28:39;17.75;;;8.93;;
62994;SDS011;49086;52.300;4.850;2022-11-20T09:31:05;16.67;;;8.98;;
62994;SDS011;49086;52.300;4.850;2022-11-20T09:33:30;19.77;;;9.82;;
62994;SDS011;49086;52.300;4.850;2022-11-20T09:35:56;16.23;;;9.80;;
62994;SDS011;49086;52.300;4.850;2022-11-20T09:38:21;15.30;;;9.32;;
62994;SDS011;49086;52.300;4.850;2022-11-20T09:40:52;20.83;;;9.90;;
62994;SDS011;49086;52.300;4.850;2022-11-20T09:43:22;18.80;;;9.38;;
62994;SDS011;49086;52.300;4.850;2022-11-20T09:49:06;16.83;;;9.75;;
62994;SDS011;49086;52.300;4.850;2022-11-20T09:54:37;17.83;;;9.02;;
62994;SDS011;49086;52.300;4.850;2022-11-20T09:57:15;22.17;;;10.07;;
62994;SDS011;49086;52.300;4.850;2022-11-20T09:59:56;16.92;;;9.25;;
62994;SDS011;49086;52.300;4.850;2022-11-20T10:05:00;17.80;;;10.07;;
62994;SDS011;49086;52.300;4.850;2022-11-20T10:10:19;16.80;;;10.63;;
62994;SDS011;49086;52.300;4.850;2022-11-20T10:12:51;19.25;;;10.60;;
62994;SDS011;49086;52.300;4.850;2022-11-20T10:15:44;19.40;;;10.65;;
62994;SDS011;49086;52.300;4.850;2022-11-20T10:23:41;18.15;;;9.60;;
62994;SDS011;49086;52.300;4.850;2022-11-20T10:26:22;25.65;;;11.35;;
62994;SDS011;49086;52.300;4.850;2022-11-20T10:29:01;18.35;;;9.88;;
62994;SDS011;49086;52.300;4.850;2022-11-20T10:31:42;16.58;;;9.75;;
62994;SDS011;49086;52.300;4.850;2022-11-20T10:37:23;17.30;;;9.48;;
62994;SDS011;49086;52.300;4.850;2022-11-20T10:39:50;23.25;;;11.18;;
62994;SDS011;49086;52.300;4.850;2022-11-20T10:42:37;20.08;;;10.43;;
62994;SDS011;49086;52.300;4.850;2022-11-20T10:45:29;18.67;;;9.98;;
62994;SDS011;49086;52.300;4.850;2022-11-20T10:51:07;19.60;;;10.93;;
62994;SDS011;49086;52.300;4.850;2022-11-20T10:56:35;22.00;;;11.02;;
62994;SDS011;49086;52.300;4.850;2022-11-20T10:59:12;23.45;;;11.63;;
62994;SDS011;49086;52.300;4.850;2022-11-20T11:01:41;19.13;;;9.45;;
62994;SDS011;49086;52.300;4.850;2022-11-20T11:04:13;19.63;;;10.73;;
62994;SDS011;49086;52.300;4.850;2022-11-20T11:06:50;20.33;;;11.20;;
62994;SDS011;49086;52.300;4.850;2022-11-20T11:09:30;21.02;;;11.02;;
62994;SDS011;49086;52.300;4.850;2022-11-20T11:11:59;24.20;;;11.40;;
62994;SDS011;49086;52.300;4.850;2022-11-20T11:14:24;25.45;;;11.43;;
62994;SDS011;49086;52.300;4.850;2022-11-20T11:16:55;22.23;;;10.57;;
62994;SDS011;49086;52.300;4.850;2022-11-20T11:19:23;25.02;;;12.00;;
62994;SDS011;49086;52.300;4.850;2022-11-20T11:21:54;23.35;;;11.02;;
62994;SDS011;49086;52.300;4.850;2022-11-20T11:27:13;23.13;;;11.98;;
62994;SDS011;49086;52.300;4.850;2022-11-20T11:29:45;23.60;;;11.48;;
62994;SDS011;49086;52.300;4.850;2022-11-20T11:32:22;23.60;;;11.38;;
62994;SDS011;49086;52.300;4.850;2022-11-20T11:35:02;23.85;;;13.02;;
62994;SDS011;49086;52.300;4.850;2022-11-20T11:37:34;18.35;;;11.38;;
62994;SDS011;49086;52.300;4.850;2022-11-20T11:40:06;21.20;;;11.32;;
62994;SDS011;49086;52.300;4.850;2022-11-20T11:42:32;21.05;;;11.75;;
62994;SDS011;49086;52.300;4.850;2022-11-20T11:44:59;25.08;;;12.68;;
62994;SDS011;49086;52.300;4.850;2022-11-20T11:47:43;28.85;;;12.00;;
62994;SDS011;49086;52.300;4.850;2022-11-20T11:50:22;25.73;;;13.30;;
62994;SDS011;49086;52.300;4.850;2022-11-20T11:53:14;25.15;;;11.65;;
62994;SDS011;49086;52.300;4.850;2022-11-20T11:55:45;23.02;;;12.73;;
62994;SDS011;49086;52.300;4.850;2022-11-20T12:01:10;20.92;;;11.30;;
62994;SDS011;49086;52.300;4.850;2022-11-20T12:03:37;24.05;;;13.10;;
62994;SDS011;49086;52.300;4.850;2022-11-20T12:06:05;22.95;;;12.60;;
62994;SDS011;49086;52.300;4.850;2022-11-20T12:11:24;26.70;;;13.27;;
62994;SDS011;49086;52.300;4.850;2022-11-20T12:14:14;24.08;;;12.73;;
62994;SDS011;49086;52.300;4.850;2022-11-20T12:16:51;26.63;;;12.45;;
62994;SDS011;49086;52.300;4.850;2022-11-20T12:19:23;28.67;;;14.20;;
62994;SDS011;49086;52.300;4.850;2022-11-20T12:24:55;28.83;;;13.52;;
62994;SDS011;49086;52.300;4.850;2022-11-20T12:30:29;25.80;;;12.80;;
62994;SDS011;49086;52.300;4.850;2022-11-20T12:33:16;25.10;;;13.43;;
62994;SDS011;49086;52.300;4.850;2022-11-20T12:41:15;27.00;;;13.43;;
62994;SDS011;49086;52.300;4.850;2022-11-20T12:44:24;26.42;;;13.65;;
62994;SDS011;49086;52.300;4.850;2022-11-20T12:50:28;29.20;;;14.27;;
62994;SDS011;49086;52.300;4.850;2022-11-20T12:53:07;26.35;;;13.45;;
62994;SDS011;49086;52.300;4.850;2022-11-20T12:55:42;25.92;;;14.73;;
62994;SDS011;49086;52.300;4.850;2022-11-20T12:58:27;34.97;;;18.50;;
62994;SDS011;49086;52.300;4.850;2022-11-20T13:06:44;32.15;;;16.02;;
62994;SDS011;49086;52.300;4.850;2022-11-20T13:09:15;35.72;;;18.58;;
62994;SDS011;49086;52.300;4.850;2022-11-20T13:11:44;40.60;;;17.58;;
62994;SDS011;49086;52.300;4.850;2022-11-20T13:19:17;38.67;;;18.33;;
62994;SDS011;49086;52.300;4.850;2022-11-20T13:21:44;39.78;;;19.05;;
62994;SDS011;49086;52.300;4.850;2022-11-20T13:24:32;32.13;;;15.15;;
62994;SDS011;49086;52.300;4.850;2022-11-20T13:27:01;36.08;;;16.08;;
62994;SDS011;49086;52.300;4.850;2022-11-20T13:29:26;32.55;;;15.82;;
62994;SDS011;49086;52.300;4.850;2022-11-20T13:32:01;40.90;;;20.05;;
62994;SDS011;49086;52.300;4.850;2022-11-20T13:34:33;38.15;;;20.60;;
62994;SDS011;49086;52.300;4.850;2022-11-20T13:37:01;36.20;;;17.35;;
62994;SDS011;49086;52.300;4.850;2022-11-20T13:39:35;60.38;;;32.15;;
62994;SDS011;49086;52.300;4.850;2022-11-20T13:42:02;43.63;;;19.90;;
62994;SDS011;49086;52.300;4.850;2022-11-20T13:44:35;35.67;;;17.70;;
62994;SDS011;49086;52.300;4.850;2022-11-20T13:47:17;32.78;;;14.98;;
62994;SDS011;49086;52.300;4.850;2022-11-20T13:49:45;27.10;;;15.05;;
62994;SDS011;49086;52.300;4.850;2022-11-20T14:02:26;30.77;;;16.15;;
62994;SDS011;49086;52.300;4.850;2022-11-20T14:04:54;31.75;;;14.75;;
62994;SDS011;49086;52.300;4.850;2022-11-20T14:07:21;35.55;;;17.48;;
62994;SDS011;49086;52.300;4.850;2022-11-20T14:09:52;40.58;;;20.17;;
62994;SDS011;49086;52.300;4.850;2022-11-20T14:12:19;40.80;;;20.45;;
62994;SDS011;49086;52.300;4.850;2022-11-20T14:14:49;48.85;;;23.35;;
62994;SDS011;49086;52.300;4.850;2022-11-20T14:17:19;48.58;;;26.52;;
62994;SDS011;49086;52.300;4.850;2022-11-20T14:19:48;30.37;;;16.37;;
62994;SDS011;49086;52.300;4.850;2022-11-20T14:22:24;37.90;;;19.83;;
62994;SDS011;49086;52.300;4.850;2022-11-20T14:27:36;44.15;;;20.75;;
62994;SDS011;49086;52.300;4.850;2022-11-20T14:30:02;38.30;;;17.90;;
62994;SDS011;49086;52.300;4.850;2022-11-20T14:32:29;35.60;;;17.33;;
62994;SDS011;49086;52.300;4.850;2022-11-20T14:34:57;52.80;;;25.90;;
62994;SDS011;49086;52.300;4.850;2022-11-20T14:37:25;46.85;;;23.05;;
62994;SDS011;49086;52.300;4.850;2022-11-20T14:39:54;39.20;;;17.98;;
62994;SDS011;49086;52.300;4.850;2022-11-20T14:42:23;49.42;;;24.23;;
62994;SDS011;49086;52.300;4.850;2022-11-20T14:44:49;37.75;;;19.52;;
62994;SDS011;49086;52.300;4.850;2022-11-20T14:47:17;43.95;;;19.95;;
62994;SDS011;49086;52.300;4.850;2022-11-20T14:49:43;40.42;;;19.38;;
62994;SDS011;49086;52.300;4.850;2022-11-20T14:52:22;45.13;;;20.90;;
62994;SDS011;49086;52.300;4.850;2022-11-20T14:54:48;35.05;;;18.50;;
62994;SDS011;49086;52.300;4.850;2022-11-20T14:57:21;48.72;;;24.55;;
62994;SDS011;49086;52.300;4.850;2022-11-20T14:59:48;45.78;;;18.90;;
62994;SDS011;49086;52.300;4.850;2022-11-20T15:02:14;38.38;;;17.27;;
62994;SDS011;49086;52.300;4.850;2022-11-20T15:07:11;36.30;;;18.08;;
62994;SDS011;49086;52.300;4.850;2022-11-20T15:09:41;33.50;;;15.88;;
62994;SDS011;49086;52.300;4.850;2022-11-20T15:12:06;36.40;;;16.33;;
62994;SDS011;49086;52.300;4.850;2022-11-20T15:14:32;33.20;;;16.20;;
62994;SDS011;49086;52.300;4.850;2022-11-20T15:17:00;38.30;;;19.52;;
62994;SDS011;49086;52.300;4.850;2022-11-20T15:19:25;31.20;;;16.33;;
62994;SDS011;49086;52.300;4.850;2022-11-20T15:21:52;34.80;;;16.33;;
62994;SDS011;49086;52.300;4.850;2022-11-20T15:24:18;37.35;;;19.27;;
62994;SDS011;49086;52.300;4.850;2022-11-20T15:26:44;34.40;;;16.45;;
62994;SDS011;49086;52.300;4.850;2022-11-20T15:29:11;40.05;;;21.88;;
62994;SDS011;49086;52.300;4.850;2022-11-20T15:31:38;55.35;;;24.30;;
62994;SDS011;49086;52.300;4.850;2022-11-20T15:34:09;59.17;;;23.40;;
62994;SDS011;49086;52.300;4.850;2022-11-20T15:36:37;43.88;;;20.45;;
62994;SDS011;49086;52.300;4.850;2022-11-20T15:39:04;34.90;;;18.63;;
62994;SDS011;49086;52.300;4.850;2022-11-20T15:41:32;66.45;;;32.35;;
62994;SDS011;49086;52.300;4.850;2022-11-20T15:43:59;48.38;;;21.17;;
62994;SDS011;49086;52.300;4.850;2022-11-20T15:46:26;45.42;;;21.85;;
62994;SDS011;49086;52.300;4.850;2022-11-20T15:48:54;36.60;;;18.70;;
62994;SDS011;49086;52.300;4.850;2022-11-20T15:51:43;40.83;;;21.10;;
62994;SDS011;49086;52.300;4.850;2022-11-20T15:54:21;43.78;;;22.15;;
62994;SDS011;49086;52.300;4.850;2022-11-20T15:56:48;42.78;;;20.88;;
62994;SDS011;49086;52.300;4.850;2022-11-20T15:59:14;34.55;;;18.10;;
62994;SDS011;49086;52.300;4.850;2022-11-20T16:01:41;34.30;;;16.52;;
62994;SDS011;49086;52.300;4.850;2022-11-20T16:04:11;39.72;;;19.80;;
62994;SDS011;49086;52.300;4.850;2022-11-20T16:06:40;33.80;;;19.73;;
62994;SDS011;49086;52.300;4.850;2022-11-20T16:09:07;32.70;;;17.65;;
62994;SDS011;49086;52.300;4.850;2022-11-20T16:11:36;36.15;;;20.35;;
62994;SDS011;49086;52.300;4.850;2022-11-20T16:14:09;35.30;;;17.88;;
62994;SDS011;49086;52.300;4.850;2022-11-20T16:16:53;53.08;;;25.95;;
62994;SDS011;49086;52.300;4.850;2022-11-20T16:19:20;37.53;;;18.85;;
62994;SDS011;49086;52.300;4.850;2022-11-20T16:21:50;56.90;;;25.90;;
62994;SDS011;49086;52.300;4.850;2022-11-20T16:24:25;47.75;;;22.58;;
62994;SDS011;49086;52.300;4.850;2022-11-20T16:26:50;56.78;;;25.45;;
62994;SDS011;49086;52.300;4.850;2022-11-20T16:29:20;31.85;;;18.05;;
62994;SDS011;49086;52.300;4.850;2022-11-20T16:31:46;28.95;;;14.70;;
62994;SDS011;49086;52.300;4.850;2022-11-20T16:34:12;39.33;;;21.73;;
62994;SDS011;49086;52.300;4.850;2022-11-20T16:36:40;31.10;;;14.80;;
62994;SDS011;49086;52.300;4.850;2022-11-20T16:39:22;29.45;;;16.17;;
62994;SDS011;49086;52.300;4.850;2022-11-20T16:41:49;28.17;;;16.65;;